createdAt,value
2022-10-18T00:00:17.336Z,10.22
2022-10-18T00:03:20.329Z,10.16
2022-10-18T00:06:22.506Z,10.12
2022-10-18T00:09:25.094Z,10.07
2022-10-18T00:12:27.175Z,10.03
2022-10-18T00:15:29.138Z,9.97
2022-10-18T00:18:31.527Z,9.90
2022-10-18T00:21:33.645Z,9.88
2022-10-18T00:24:35.740Z,9.88
2022-10-18T00:27:37.844Z,9.76
2022-10-18T00:30:39.929Z,9.79
2022-10-18T00:33:43.261Z,9.74
2022-10-18T00:36:45.570Z,9.72
2022-10-18T00:39:47.563Z,9.72
2022-10-18T00:42:49.570Z,9.73
2022-10-18T00:45:51.630Z,9.72
2022-10-18T00:48:56.598Z,9.64
2022-10-18T00:52:09.254Z,9.63
2022-10-18T00:55:11.735Z,9.62
2022-10-18T00:58:16.654Z,9.56
2022-10-18T01:01:18.708Z,9.52
2022-10-18T01:04:21.746Z,9.49
2022-10-18T01:07:26.834Z,9.43
2022-10-18T01:10:56.785Z,9.42
2022-10-18T01:14:36.122Z,9.36
2022-10-18T01:18:14.123Z,9.26
2022-10-18T01:21:24.859Z,9.26
2022-10-18T01:24:45.530Z,9.30
2022-10-18T01:27:59.260Z,9.30
2022-10-18T01:31:10.187Z,9.32
2022-10-18T01:34:16.945Z,9.30
2022-10-18T01:37:21.544Z,9.17
2022-10-18T01:40:25.493Z,9.16
2022-10-18T01:43:29.873Z,9.14
2022-10-18T01:46:33.483Z,9.14
2022-10-18T01:49:35.735Z,9.06
2022-10-18T01:52:51.553Z,9.02
2022-10-18T01:56:18.247Z,8.98
2022-10-18T01:59:38.933Z,8.94
2022-10-18T02:02:48.616Z,8.91
2022-10-18T02:05:59.302Z,8.85
2022-10-18T02:09:11.193Z,8.78
2022-10-18T02:12:15.517Z,8.81
2022-10-18T02:15:22.526Z,8.85
2022-10-18T02:18:33.124Z,8.82
2022-10-18T02:21:36.099Z,8.80
2022-10-18T02:24:43.039Z,8.80
2022-10-18T02:27:45.157Z,8.78
2022-10-18T02:31:05.714Z,8.77
2022-10-18T02:34:16.894Z,8.80
2022-10-18T02:37:20.677Z,8.78
2022-10-18T02:40:25.976Z,8.80
2022-10-18T02:43:27.986Z,8.75
2022-10-18T02:46:30.030Z,8.76
2022-10-18T02:49:32.372Z,8.75
2022-10-18T02:52:34.431Z,8.74
2022-10-18T02:55:36.388Z,8.74
2022-10-18T02:58:38.423Z,8.73
2022-10-18T03:01:40.813Z,8.77
2022-10-18T03:04:42.925Z,8.78
2022-10-18T03:07:48.504Z,8.79
2022-10-18T03:10:50.689Z,8.76
2022-10-18T03:13:52.695Z,8.68
2022-10-18T03:16:54.679Z,8.65
2022-10-18T03:19:56.682Z,8.65
2022-10-18T03:22:58.602Z,8.64
2022-10-18T03:26:00.713Z,8.60
2022-10-18T03:29:02.959Z,8.57
2022-10-18T03:32:05.301Z,8.54
2022-10-18T03:35:09.278Z,8.50
2022-10-18T03:38:11.418Z,8.45
2022-10-18T03:41:13.573Z,8.42
2022-10-18T03:44:15.489Z,8.38
2022-10-18T03:47:17.559Z,8.35
2022-10-18T03:50:20.062Z,8.33
2022-10-18T03:53:22.095Z,8.31
2022-10-18T03:56:24.055Z,8.27
2022-10-18T03:59:26.124Z,8.27
2022-10-18T04:02:28.073Z,8.28
2022-10-18T04:05:31.399Z,8.29
2022-10-18T04:08:33.458Z,8.31
2022-10-18T04:11:35.436Z,8.24
2022-10-18T04:14:37.429Z,8.19
2022-10-18T04:17:39.473Z,8.20
2022-10-18T04:20:41.609Z,8.21
2022-10-18T04:23:43.550Z,8.19
2022-10-18T04:26:45.878Z,8.19
2022-10-18T04:29:47.792Z,8.16
2022-10-18T04:32:49.836Z,8.15
2022-10-18T04:35:53.489Z,8.11
2022-10-18T04:38:55.543Z,8.09
2022-10-18T04:41:57.570Z,8.08
2022-10-18T04:44:59.516Z,8.08
2022-10-18T04:48:01.639Z,8.08
2022-10-18T04:51:03.820Z,8.07
2022-10-18T04:54:05.881Z,8.06
2022-10-18T04:57:07.861Z,8.05
2022-10-18T05:00:10.220Z,8.03
2022-10-18T05:03:14.001Z,8.00
2022-10-18T05:06:16.026Z,7.98
2022-10-18T05:09:18.024Z,7.98
2022-10-18T05:12:20.152Z,7.97
2022-10-18T05:15:22.201Z,7.98
2022-10-18T05:18:24.183Z,7.99
2022-10-18T05:21:26.198Z,7.95
2022-10-18T05:24:28.272Z,7.95
2022-10-18T05:27:30.357Z,7.95
2022-10-18T05:30:32.407Z,7.97
2022-10-18T05:33:34.471Z,7.99
2022-10-18T05:36:36.546Z,8.02
2022-10-18T05:39:39.036Z,8.05
2022-10-18T05:42:40.992Z,8.03
2022-10-18T05:45:48.112Z,8.05
2022-10-18T05:48:51.459Z,8.05
2022-10-18T05:51:53.707Z,8.09
2022-10-18T05:54:55.720Z,8.08
2022-10-18T05:57:57.652Z,8.12
2022-10-18T06:01:04.194Z,8.19
2022-10-18T06:04:06.461Z,8.31
2022-10-18T06:07:10.141Z,8.43
2022-10-18T06:10:17.688Z,8.49
2022-10-18T06:13:19.633Z,8.59
2022-10-18T06:16:22.882Z,8.69
2022-10-18T06:19:24.910Z,8.86
2022-10-18T06:22:26.979Z,8.99
2022-10-18T06:25:28.964Z,9.15
2022-10-18T06:28:31.161Z,9.24
2022-10-18T06:31:33.199Z,9.33
2022-10-18T06:34:35.344Z,9.43
2022-10-18T06:37:38.321Z,9.52
2022-10-18T06:40:42.172Z,9.64
2022-10-18T06:43:53.117Z,9.78
2022-10-18T06:46:55.106Z,9.95
2022-10-18T06:49:57.051Z,10.18
2022-10-18T06:52:59.007Z,10.74
2022-10-18T06:56:02.849Z,11.71
2022-10-18T06:59:05.386Z,12.84
2022-10-18T07:02:07.598Z,13.80
2022-10-18T07:05:11.255Z,14.39
2022-10-18T07:08:13.203Z,15.21
2022-10-18T07:11:25.215Z,15.93
2022-10-18T07:14:29.193Z,16.32
2022-10-18T07:17:31.546Z,17.03
2022-10-18T07:20:34.047Z,16.56
2022-10-18T07:23:38.281Z,16.72
2022-10-18T07:26:40.208Z,17.56
2022-10-18T07:29:42.246Z,17.85
2022-10-18T07:32:44.215Z,18.03
2022-10-18T07:35:46.344Z,18.23
2022-10-18T07:38:49.420Z,19.25
2022-10-18T07:41:51.517Z,19.71
2022-10-18T07:44:53.458Z,19.54
2022-10-18T07:47:56.673Z,19.89
2022-10-18T07:51:00.988Z,20.48
2022-10-18T07:54:03.170Z,20.57
2022-10-18T07:57:05.494Z,20.98
2022-10-18T08:00:09.158Z,20.65
2022-10-18T08:03:11.357Z,20.56
2022-10-18T08:06:16.511Z,20.90
2022-10-18T08:09:18.508Z,20.74
2022-10-18T08:12:20.447Z,19.64
2022-10-18T08:15:25.057Z,19.20
2022-10-18T08:18:26.990Z,18.54
2022-10-18T08:21:28.951Z,18.03
2022-10-18T08:24:31.041Z,17.48
2022-10-18T08:27:33.188Z,17.34
2022-10-18T08:30:36.749Z,17.07
2022-10-18T08:33:39.933Z,17.23
2022-10-18T08:36:41.825Z,17.10
2022-10-18T08:39:43.798Z,17.08
2022-10-18T08:42:52.766Z,16.92
2022-10-18T08:45:55.226Z,16.63
2022-10-18T08:48:57.410Z,16.58
2022-10-18T08:51:59.494Z,16.57
2022-10-18T08:55:10.606Z,16.59
2022-10-18T08:58:17.906Z,16.49
2022-10-18T09:01:26.081Z,16.54
2022-10-18T09:04:40.242Z,16.60
2022-10-18T09:07:47.980Z,16.65
2022-10-18T09:10:49.926Z,16.66
2022-10-18T09:14:37.597Z,16.70
2022-10-18T09:17:57.575Z,16.73
2022-10-18T09:21:06.577Z,16.96
2022-10-18T09:24:25.653Z,17.07
2022-10-18T09:27:59.889Z,17.25
2022-10-18T09:31:05.048Z,17.50
2022-10-18T09:34:24.898Z,18.04
2022-10-18T09:37:30.843Z,18.50
2022-10-18T09:40:37.803Z,18.90
2022-10-18T09:43:51.041Z,19.03
2022-10-18T09:47:00.622Z,19.53
2022-10-18T09:50:13.819Z,19.94
2022-10-18T09:53:37.069Z,20.53
2022-10-18T09:56:50.221Z,21.30
2022-10-18T09:59:52.585Z,22.07
2022-10-18T10:02:54.745Z,22.47
2022-10-18T10:06:25.342Z,22.70
2022-10-18T10:09:37.185Z,23.28
2022-10-18T10:12:41.088Z,23.91
2022-10-18T10:15:52.168Z,24.09
2022-10-18T10:18:54.666Z,25.29
2022-10-18T10:22:05.317Z,24.80
2022-10-18T10:25:19.357Z,25.12
2022-10-18T10:28:30.564Z,25.46
2022-10-18T10:31:34.430Z,26.31
2022-10-18T10:34:37.308Z,26.90
2022-10-18T10:37:40.814Z,26.60
2022-10-18T10:40:50.468Z,26.20
2022-10-18T10:43:52.789Z,26.80
2022-10-18T10:46:55.444Z,26.77
2022-10-18T10:49:57.714Z,26.17
2022-10-18T10:52:59.957Z,26.30
2022-10-18T10:56:03.249Z,26.73
2022-10-18T10:59:08.611Z,27.56
2022-10-18T11:02:20.709Z,27.48
2022-10-18T11:05:27.179Z,27.01
2022-10-18T11:08:38.948Z,27.15
2022-10-18T11:11:50.020Z,27.80
2022-10-18T11:15:14.275Z,26.82
2022-10-18T11:18:30.291Z,27.18
2022-10-18T11:21:33.193Z,28.19
2022-10-18T11:24:36.665Z,28.27
2022-10-18T11:27:49.378Z,28.17
2022-10-18T11:31:29.725Z,27.58
2022-10-18T11:35:20.227Z,27.16
2022-10-18T11:38:53.492Z,27.73
2022-10-18T11:42:39.162Z,28.18
2022-10-18T11:46:03.509Z,27.65
2022-10-18T11:49:43.264Z,27.75
2022-10-18T11:53:03.786Z,27.71
2022-10-18T11:56:27.189Z,27.21
2022-10-18T11:59:46.038Z,27.55
2022-10-18T12:02:56.320Z,27.71
2022-10-18T12:06:03.805Z,27.68
2022-10-18T12:09:32.728Z,28.07
2022-10-18T12:12:42.074Z,28.84
2022-10-18T12:15:45.279Z,28.69
2022-10-18T12:18:57.889Z,28.50
2022-10-18T12:22:21.432Z,27.90
2022-10-18T12:25:23.804Z,28.33
2022-10-18T12:28:28.919Z,28.44
2022-10-18T12:31:45.781Z,28.38
2022-10-18T12:34:55.133Z,29.13
2022-10-18T12:38:23.971Z,29.72
2022-10-18T12:41:30.376Z,29.45
2022-10-18T12:44:34.712Z,29.38
2022-10-18T12:47:36.896Z,28.77
2022-10-18T12:50:42.275Z,27.81
2022-10-18T12:53:54.837Z,28.93
2022-10-18T12:56:58.074Z,28.67
2022-10-18T13:00:00.199Z,28.79
2022-10-18T13:03:16.640Z,28.83
2022-10-18T13:06:18.775Z,29.28
2022-10-18T13:09:21.830Z,27.71
2022-10-18T13:12:23.741Z,27.51
2022-10-18T13:15:52.976Z,28.58
2022-10-18T13:18:57.779Z,29.05
2022-10-18T13:22:41.471Z,29.62
2022-10-18T13:26:05.425Z,29.23
2022-10-18T13:29:33.946Z,28.64
2022-10-18T13:32:50.761Z,28.43
2022-10-18T13:36:05.492Z,28.20
2022-10-18T13:39:20.922Z,28.21
2022-10-18T13:42:32.364Z,28.35
2022-10-18T13:45:35.319Z,27.79
2022-10-18T13:48:37.366Z,27.81
2022-10-18T13:52:07.072Z,27.30
2022-10-18T13:55:26.295Z,27.59
2022-10-18T13:59:05.861Z,27.46
2022-10-18T14:02:51.702Z,27.08
2022-10-18T14:06:01.804Z,27.57
2022-10-18T14:09:26.307Z,27.34
2022-10-18T14:12:44.382Z,27.07
2022-10-18T14:15:51.763Z,26.52
2022-10-18T14:19:01.601Z,26.73
2022-10-18T14:22:13.098Z,26.95
2022-10-18T14:25:37.170Z,26.97
2022-10-18T14:28:58.472Z,26.59
2022-10-18T14:32:01.176Z,26.69
2022-10-18T14:35:31.180Z,26.27
2022-10-18T14:38:25.650Z,26.13
2022-10-18T14:41:38.581Z,25.83
2022-10-18T14:44:40.659Z,26.02
2022-10-18T14:47:45.799Z,25.74
2022-10-18T14:50:59.307Z,25.59
2022-10-18T14:54:01.837Z,25.50
2022-10-18T14:57:05.973Z,25.05
2022-10-18T15:00:09.773Z,24.58
2022-10-18T15:03:15.901Z,24.09
2022-10-18T15:06:19.742Z,23.40
2022-10-18T15:09:24.184Z,23.04
2022-10-18T15:12:33.908Z,22.74
2022-10-18T15:15:48.026Z,22.19
2022-10-18T15:19:03.163Z,21.90
2022-10-18T15:25:32.930Z,21.37
2022-10-18T15:28:40.125Z,21.06
2022-10-18T15:31:44.501Z,20.86
2022-10-18T15:34:46.905Z,20.54
2022-10-18T15:37:49.009Z,20.26
2022-10-18T15:40:52.054Z,20.01
2022-10-18T15:44:10.104Z,19.90
2022-10-18T15:47:21.114Z,19.52
2022-10-18T15:50:50.583Z,19.22
2022-10-18T15:53:54.476Z,18.85
2022-10-18T15:56:57.042Z,18.62
2022-10-18T16:00:05.025Z,18.40
2022-10-18T16:03:09.329Z,18.24
2022-10-18T16:06:15.887Z,17.95
2022-10-18T16:09:22.651Z,17.77
2022-10-18T16:12:24.590Z,17.61
2022-10-18T16:15:26.617Z,17.48
2022-10-18T16:18:28.627Z,17.34
2022-10-18T16:21:38.190Z,17.26
2022-10-18T16:24:40.656Z,17.12
2022-10-18T16:27:42.606Z,16.96
2022-10-18T16:30:50.510Z,16.80
2022-10-18T16:33:54.118Z,16.68
2022-10-18T16:36:56.140Z,16.55
2022-10-18T16:39:58.086Z,16.46
2022-10-18T16:43:00.094Z,16.26
2022-10-18T16:46:03.090Z,16.12
2022-10-18T16:49:06.491Z,16.04
2022-10-18T16:52:08.742Z,15.91
2022-10-18T16:55:17.199Z,15.84
2022-10-18T16:58:19.254Z,15.81
2022-10-18T17:01:23.747Z,15.72
2022-10-18T17:04:25.759Z,15.63
2022-10-18T17:07:27.730Z,15.51
2022-10-18T17:10:30.499Z,15.52
2022-10-18T17:13:32.469Z,15.46
2022-10-18T17:16:37.586Z,15.42
2022-10-18T17:19:39.651Z,15.28
2022-10-18T17:22:41.734Z,15.19
2022-10-18T17:25:57.571Z,15.09
2022-10-18T17:29:08.720Z,15.04
2022-10-18T17:32:11.173Z,15.01
2022-10-18T17:35:13.746Z,15.02
2022-10-18T17:38:16.396Z,14.96
2022-10-18T17:41:18.642Z,14.81
2022-10-18T17:44:21.581Z,14.73
2022-10-18T17:47:24.203Z,14.58
2022-10-18T17:50:35.980Z,14.56
2022-10-18T17:53:39.269Z,14.61
2022-10-18T17:56:42.213Z,14.59
2022-10-18T17:59:45.224Z,14.47
2022-10-18T18:02:48.049Z,14.38
2022-10-18T18:05:53.798Z,14.27
2022-10-18T18:08:57.804Z,14.14
2022-10-18T18:12:00.203Z,14.00
2022-10-18T18:15:02.662Z,13.89
2022-10-18T18:18:05.615Z,13.83
2022-10-18T18:21:09.486Z,13.81
2022-10-18T18:24:14.525Z,13.76
2022-10-18T18:27:17.375Z,13.53
2022-10-18T18:30:22.580Z,13.52
2022-10-18T18:33:25.879Z,13.34
2022-10-18T18:36:29.652Z,13.26
2022-10-18T18:39:35.811Z,13.18
2022-10-18T18:42:38.505Z,13.23
2022-10-18T18:45:41.199Z,13.18
2022-10-18T18:48:44.165Z,13.06
2022-10-18T18:51:48.885Z,13.01
2022-10-18T18:54:51.708Z,12.96
2022-10-18T18:57:54.551Z,12.90
2022-10-18T19:00:57.793Z,12.92
2022-10-18T19:04:01.573Z,12.86
2022-10-18T19:07:04.327Z,12.82
2022-10-18T19:10:07.490Z,12.72
2022-10-18T19:13:11.112Z,12.66
2022-10-18T19:16:20.327Z,12.61
2022-10-18T19:19:24.753Z,12.63
2022-10-18T19:22:27.570Z,12.61
2022-10-18T19:25:29.994Z,12.53
2022-10-18T19:28:32.861Z,12.47
2022-10-18T19:31:36.490Z,12.46
2022-10-18T19:34:39.938Z,12.46
2022-10-18T19:37:42.717Z,12.44
2022-10-18T19:41:04.756Z,12.40
2022-10-18T19:44:07.598Z,12.30
2022-10-18T19:47:14.720Z,12.22
2022-10-18T19:50:18.008Z,12.14
2022-10-18T19:53:21.016Z,12.11
2022-10-18T19:56:26.097Z,11.95
2022-10-18T19:59:29.426Z,11.92
2022-10-18T20:02:32.310Z,11.90
2022-10-18T20:05:34.687Z,11.84
2022-10-18T20:08:37.846Z,11.81
2022-10-18T20:11:40.319Z,11.72
2022-10-18T20:14:42.396Z,11.58
2022-10-18T20:17:44.427Z,11.68
2022-10-18T20:20:48.403Z,11.73
2022-10-18T20:23:50.372Z,11.73
2022-10-18T20:29:55.184Z,11.59
2022-10-18T20:32:57.218Z,11.57
2022-10-18T20:36:08.021Z,11.58
2022-10-18T20:39:10.171Z,11.52
2022-10-18T20:42:12.256Z,11.48
2022-10-18T20:45:14.301Z,11.36
2022-10-18T20:48:16.335Z,11.29
2022-10-18T20:51:20.022Z,11.29
2022-10-18T20:54:22.861Z,11.23
2022-10-18T20:57:24.979Z,11.18
2022-10-18T21:00:27.962Z,11.08
2022-10-18T21:03:29.946Z,11.00
2022-10-18T21:06:44.846Z,10.94
2022-10-18T21:09:46.826Z,10.87
2022-10-18T21:12:48.930Z,10.83
2022-10-18T21:15:58.554Z,10.86
2022-10-18T21:19:08.811Z,10.79
2022-10-18T21:22:11.007Z,10.82
2022-10-18T21:25:13.008Z,10.84
2022-10-18T21:28:16.346Z,10.82
2022-10-18T21:31:21.256Z,10.80
2022-10-18T21:34:23.357Z,10.77
2022-10-18T21:37:25.275Z,10.73
2022-10-18T21:40:29.890Z,10.72
2022-10-18T21:43:31.832Z,10.62
2022-10-18T21:46:33.868Z,10.62
2022-10-18T21:49:35.806Z,10.61
2022-10-18T21:52:38.329Z,10.62
2022-10-18T21:55:40.253Z,10.50
2022-10-18T21:58:43.058Z,10.53
2022-10-18T22:01:45.813Z,10.40
2022-10-18T22:04:49.759Z,10.45
2022-10-18T22:07:51.755Z,10.51
2022-10-18T22:10:53.834Z,10.47
2022-10-18T22:13:56.240Z,10.45
2022-10-18T22:16:58.278Z,10.42
2022-10-18T22:20:00.402Z,10.39
2022-10-18T22:23:02.395Z,10.38
2022-10-18T22:26:08.073Z,10.33
2022-10-18T22:29:15.057Z,10.35
2022-10-18T22:32:17.035Z,10.32
2022-10-18T22:35:18.967Z,10.29
2022-10-18T22:38:21.005Z,10.13
2022-10-18T22:41:22.988Z,10.09
2022-10-18T22:44:25.451Z,10.07
2022-10-18T22:47:27.477Z,10.04
2022-10-18T22:50:29.410Z,10.02
2022-10-18T22:53:32.422Z,10.01
2022-10-18T22:56:34.905Z,10.05
2022-10-18T22:59:36.928Z,10.00
2022-10-18T23:02:38.927Z,9.98
2022-10-18T23:05:43.055Z,9.91
2022-10-18T23:08:45.004Z,9.88
2022-10-18T23:11:48.131Z,9.89
2022-10-18T23:14:50.221Z,9.91
2022-10-18T23:17:54.730Z,9.87
2022-10-18T23:21:09.070Z,9.88
2022-10-18T23:24:11.093Z,9.88
2022-10-18T23:27:13.147Z,9.77
2022-10-18T23:30:23.223Z,9.69
2022-10-18T23:33:25.222Z,9.58
2022-10-18T23:36:27.466Z,9.60
2022-10-18T23:39:29.399Z,9.62
2022-10-18T23:42:31.605Z,9.60
2022-10-18T23:45:33.555Z,9.61
2022-10-18T23:48:35.649Z,9.64
2022-10-18T23:51:37.639Z,9.60
2022-10-18T23:54:39.879Z,9.57
2022-10-18T23:57:41.843Z,9.58
